Time;durP1;ratioP1;P1;durP2;ratioP2;P2;SDS_P1;SDS_P2;PMS_P1;PMS_P2;Temp;Humidity;BMP_temperature;BMP_pressure;BME280_temperature;BME280_humidity;BME280_pressure;Samples;Min_cycle;Max_cycle;Signal;HPM_P1;HPM_P2
2023/12/06 00:00:38;;;;;;;0.30;0.30;;;3.20;99.90;;;2.26;100.00;96544.59;5014058;28;20033;-35
2023/12/06 00:03:04;;;;;;;0.30;0.30;;;3.20;99.90;;;2.26;100.00;96551.53;5014576;28;20029;-37
2023/12/06 00:05:31;;;;;;;0.30;0.30;;;3.20;99.90;;;2.26;100.00;96551.53;5000233;28;20032;-36
2023/12/06 00:07:57;;;;;;;0.40;0.30;;;3.20;99.90;;;2.26;100.00;96556.72;5014947;28;20502;-36
2023/12/06 00:10:22;;;;;;;0.57;0.40;;;3.20;99.90;;;2.25;100.00;96555.03;5012058;28;20787;-36
2023/12/06 00:12:48;;;;;;;0.40;0.30;;;3.20;99.90;;;2.28;100.00;96563.63;5015020;28;20041;-36
2023/12/06 00:15:15;;;;;;;0.43;0.30;;;3.20;99.90;;;2.31;100.00;96557.50;5010315;28;20025;-36
2023/12/06 00:17:41;;;;;;;0.38;0.25;;;3.20;99.90;;;2.31;100.00;96554.91;5014862;28;20034;-36
2023/12/06 00:20:07;;;;;;;0.30;0.30;;;3.30;99.90;;;2.20;100.00;96539.47;5014396;28;20048;-37
2023/12/06 00:22:33;;;;;;;0.30;0.30;;;3.20;99.90;;;2.34;100.00;96551.41;5012775;28;20029;-36
2023/12/06 00:24:59;;;;;;;0.22;0.20;;;3.30;99.90;;;2.38;100.00;96561.72;5017616;28;20528;-36
2023/12/06 00:27:25;;;;;;;0.22;0.20;;;3.30;99.90;;;2.40;100.00;96551.28;5012102;28;20052;-37
2023/12/06 00:29:50;;;;;;;0.40;0.40;;;3.30;99.90;;;2.41;100.00;96568.63;5014140;28;20036;-36
2023/12/06 00:32:16;;;;;;;0.65;0.30;;;3.30;99.90;;;2.39;100.00;96554.78;5010543;28;20030;-37
2023/12/06 00:34:42;;;;;;;0.95;0.40;;;3.30;99.90;;;2.43;100.00;96556.44;5012708;28;20622;-36
2023/12/06 00:37:07;;;;;;;0.43;0.30;;;3.40;99.90;;;2.44;100.00;96560.75;5010502;28;20466;-36
2023/12/06 00:39:33;;;;;;;0.20;0.20;;;3.30;99.90;;;2.41;100.00;96561.66;5013249;28;20033;-34
2023/12/06 00:41:59;;;;;;;0.28;0.20;;;3.30;99.90;;;2.43;100.00;96559.88;5005773;28;20527;-34
2023/12/06 00:44:25;;;;;;;0.47;0.30;;;3.30;99.90;;;2.40;100.00;96554.72;5008586;28;20226;-37
2023/12/06 00:46:50;;;;;;;0.25;0.25;;;3.30;99.90;;;2.43;100.00;96565.09;5010512;28;20017;-35
2023/12/06 00:49:18;;;;;;;0.75;0.22;;;3.30;99.90;;;2.43;100.00;96569.44;5007079;28;20076;-35
2023/12/06 00:51:43;;;;;;;0.22;0.22;;;3.40;99.90;;;2.40;100.00;96570.34;5005044;28;20069;-35
2023/12/06 00:54:09;;;;;;;0.30;0.20;;;3.30;99.90;;;2.41;100.00;96566.88;5005944;28;20027;-35
2023/12/06 00:56:35;;;;;;;0.30;0.30;;;3.30;99.90;;;2.44;100.00;96566.81;5011872;28;20576;-36
2023/12/06 00:59:00;;;;;;;1.23;0.20;;;3.30;99.90;;;2.46;100.00;96574.59;5007825;28;20044;-36
2023/12/06 01:01:26;;;;;;;1.90;0.28;;;3.40;99.90;;;2.38;100.00;96574.72;5009322;28;20198;-36
2023/12/06 01:03:52;;;;;;;0.20;0.20;;;3.40;99.90;;;2.39;100.00;96573.00;5004349;28;20075;-36
2023/12/06 01:06:18;;;;;;;0.25;0.22;;;3.30;99.90;;;2.43;100.00;96582.47;4999923;28;20041;-37
2023/12/06 01:08:44;;;;;;;0.30;0.20;;;3.30;99.90;;;2.38;100.00;96582.53;4999265;28;20123;-36
2023/12/06 01:11:09;;;;;;;0.60;0.10;;;3.30;99.90;;;2.33;100.00;96573.94;5003029;28;20036;-36
2023/12/06 01:13:35;;;;;;;0.13;0.13;;;3.30;99.90;;;2.36;100.00;96589.50;5009390;28;20042;-36
2023/12/06 01:16:01;;;;;;;0.40;0.28;;;3.30;99.90;;;2.36;100.00;96588.66;5001135;28;20029;-36
2023/12/06 01:18:27;;;;;;;0.20;0.20;;;3.30;99.90;;;2.32;100.00;96585.25;5002147;28;20524;-36
2023/12/06 01:20:52;;;;;;;0.20;0.20;;;3.30;99.90;;;2.24;100.00;96568.91;5005568;28;20026;-35
2023/12/06 01:23:18;;;;;;;0.10;0.10;;;3.30;99.90;;;2.35;100.00;96594.72;5000062;28;20156;-36
2023/12/06 01:25:44;;;;;;;0.35;0.30;;;3.30;99.90;;;2.31;100.00;96593.94;5015136;28;20022;-36
2023/12/06 01:28:09;;;;;;;0.15;0.10;;;3.30;99.90;;;2.35;100.00;96602.53;4992191;28;20048;-35
2023/12/06 01:30:36;;;;;;;0.10;0.10;;;3.30;99.90;;;2.31;100.00;96599.13;5010492;28;20493;-35
2023/12/06 01:33:01;;;;;;;0.20;0.20;;;3.20;99.90;;;2.35;100.00;96607.75;5008875;28;20041;-35
2023/12/06 01:35:27;;;;;;;0.30;0.20;;;3.30;99.90;;;2.33;100.00;96615.56;5009997;28;20405;-35
2023/12/06 01:37:53;;;;;;;0.17;0.17;;;3.30;99.90;;;2.35;100.00;96603.41;5013156;28;20042;-35
2023/12/06 01:40:18;;;;;;;0.20;0.20;;;3.30;99.90;;;2.35;100.00;96608.63;5009369;28;20037;-35
2023/12/06 01:42:46;;;;;;;0.10;0.10;;;3.30;99.90;;;2.35;100.00;96603.41;5013644;28;20034;-35
2023/12/06 01:45:12;;;;;;;0.25;0.17;;;3.30;99.90;;;2.36;100.00;96607.72;5003170;28;20053;-35
2023/12/06 01:47:38;;;;;;;0.15;0.15;;;3.20;99.90;;;2.28;100.00;96599.22;5001506;28;20041;-36
2023/12/06 01:50:06;;;;;;;0.28;0.20;;;3.30;99.90;;;2.33;100.00;96619.94;4988386;28;20041;-36
2023/12/06 01:52:31;;;;;;;0.10;0.10;;;3.20;99.90;;;2.33;100.00;96612.13;5004713;28;20059;-36
2023/12/06 01:54:58;;;;;;;0.28;0.20;;;3.30;99.90;;;2.29;100.00;96614.75;5011456;28;20505;-36
2023/12/06 01:57:28;;;;;;;0.20;0.20;;;3.20;99.90;;;2.29;100.00;96611.31;4989081;28;20445;-36
2023/12/06 01:59:56;;;;;;;0.22;0.22;;;3.20;99.90;;;2.26;100.00;96617.44;5002561;28;20544;-36
2023/12/06 02:02:22;;;;;;;0.10;0.10;;;3.20;99.90;;;2.27;100.00;96615.69;5003815;28;20029;-36
2023/12/06 02:04:48;;;;;;;0.32;0.30;;;3.20;99.90;;;2.26;100.00;96626.97;4996750;28;20477;-36
2023/12/06 02:07:15;;;;;;;0.10;0.10;;;3.20;99.90;;;2.24;100.00;96620.94;5002170;28;20136;-35
2023/12/06 02:09:41;;;;;;;0.20;0.20;;;3.20;99.90;;;2.23;100.00;96627.03;5010074;28;20103;-35
2023/12/06 02:12:07;;;;;;;0.20;0.20;;;3.10;99.90;;;2.22;100.00;96620.94;5008239;28;20041;-35
2023/12/06 02:14:35;;;;;;;0.22;0.22;;;3.10;99.90;;;2.12;100.00;96610.72;5012736;28;20142;-35
2023/12/06 02:17:03;;;;;;;0.57;0.20;;;3.10;99.90;;;2.20;100.00;96624.47;5008137;28;20068;-36
2023/12/06 02:19:29;;;;;;;1.45;0.20;;;3.20;99.90;;;2.26;100.00;96625.25;5000829;28;20026;-36
2023/12/06 02:21:56;;;;;;;0.10;0.10;;;3.20;99.90;;;2.25;100.00;96633.91;4991564;28;20022;-36
2023/12/06 02:24:29;;;;;;;0.10;0.10;;;3.20;99.90;;;2.24;100.00;96623.53;5011243;28;20373;-36
2023/12/06 02:26:55;;;;;;;0.25;0.20;;;3.20;99.90;;;2.24;100.00;96624.41;5018145;28;20187;-36
2023/12/06 02:29:23;;;;;;;0.10;0.10;;;3.20;99.90;;;2.25;100.00;96618.31;5006445;28;20296;-36
2023/12/06 02:31:49;;;;;;;0.30;0.20;;;3.20;99.90;;;2.25;100.00;96631.31;5013066;28;20029;-35
2023/12/06 02:34:18;;;;;;;0.15;0.13;;;3.20;99.90;;;2.25;100.00;96617.47;5010577;28;20304;-36
2023/12/06 02:36:49;;;;;;;0.10;0.10;;;3.20;99.90;;;2.25;100.00;96622.66;4992821;28;20211;-36
2023/12/06 02:39:17;;;;;;;0.10;0.10;;;3.20;99.90;;;2.26;100.00;96629.56;4988284;28;20039;-36
2023/12/06 02:41:43;;;;;;;0.10;0.10;;;3.20;99.90;;;2.27;100.00;96620.91;5012151;28;20397;-36
2023/12/06 02:44:09;;;;;;;0.10;0.10;;;3.20;99.90;;;2.29;100.00;96624.31;5011108;28;20025;-36
2023/12/06 02:46:36;;;;;;;0.20;0.20;;;3.20;99.90;;;2.30;100.00;96623.44;5009413;28;21042;-35
2023/12/06 02:49:02;;;;;;;0.28;0.28;;;3.20;99.90;;;2.32;100.00;96618.22;4999888;28;20774;-35
2023/12/06 02:51:28;;;;;;;0.20;0.20;;;3.20;99.90;;;2.33;100.00;96625.97;5010670;28;20033;-34
2023/12/06 02:53:54;;;;;;;0.20;0.20;;;3.30;99.90;;;2.33;100.00;96623.38;5013368;28;20032;-35
2023/12/06 02:56:20;;;;;;;0.30;0.15;;;3.30;99.90;;;2.34;100.00;96621.66;5013846;28;20048;-35
2023/12/06 02:58:46;;;;;;;0.15;0.10;;;3.30;99.90;;;2.36;100.00;96631.16;5015420;28;20029;-35
2023/12/06 03:01:12;;;;;;;0.10;0.10;;;3.30;99.90;;;2.39;100.00;96631.09;5011783;28;20033;-35
2023/12/06 03:03:37;;;;;;;0.90;0.25;;;3.30;99.90;;;2.40;100.00;96626.75;5014555;28;20500;-35
2023/12/06 03:06:03;;;;;;;0.15;0.10;;;3.30;99.90;;;2.45;100.00;96632.72;5015975;28;20040;-35
2023/12/06 03:08:29;;;;;;;0.22;0.20;;;3.30;99.90;;;2.44;100.00;96628.41;5008946;28;20037;-35
2023/12/06 03:10:55;;;;;;;0.17;0.10;;;3.40;99.90;;;2.45;100.00;96630.97;5006174;28;20436;-36
2023/12/06 03:13:20;;;;;;;0.10;0.10;;;3.40;99.90;;;2.45;100.00;96630.97;4994429;28;20030;-36
2023/12/06 03:15:46;;;;;;;0.17;0.10;;;3.40;99.90;;;2.43;100.00;96621.50;4992057;28;20071;-35
2023/12/06 03:18:12;;;;;;;0.10;0.10;;;3.40;99.90;;;2.46;100.00;96627.50;5004446;28;20396;-36
2023/12/06 03:20:37;;;;;;;0.10;0.10;;;3.40;99.90;;;2.44;100.00;96616.28;5007197;28;20041;-35
2023/12/06 03:23:03;;;;;;;0.10;0.10;;;3.40;99.90;;;2.47;100.00;96633.56;5011777;28;20537;-36
2023/12/06 03:25:29;;;;;;;0.13;0.10;;;3.40;99.90;;;2.47;100.00;96618.78;5011942;28;20040;-35
2023/12/06 03:27:55;;;;;;;0.10;0.10;;;3.40;99.90;;;2.48;100.00;96630.09;5011769;28;20037;-35
2023/12/06 03:30:21;;;;;;;0.13;0.10;;;3.40;99.90;;;2.46;100.00;96624.91;5007538;28;20109;-35
2023/12/06 03:32:46;;;;;;;0.70;0.10;;;3.40;99.90;;;2.46;100.00;96624.91;5014230;28;20461;-35
2023/12/06 03:35:12;;;;;;;0.43;0.20;;;3.40;99.90;;;2.44;100.00;96626.69;5010683;28;20044;-35
2023/12/06 03:37:38;;;;;;;0.10;0.10;;;3.40;99.90;;;2.47;100.00;96641.38;5001050;28;20030;-35
2023/12/06 03:40:05;;;;;;;0.10;0.10;;;3.40;99.90;;;2.47;100.00;96634.41;5012574;28;20466;-35
2023/12/06 03:42:31;;;;;;;0.20;0.20;;;3.40;99.90;;;2.49;100.00;96642.19;5015904;28;20021;-35
2023/12/06 03:44:57;;;;;;;0.20;0.20;;;3.40;99.90;;;2.47;100.00;96636.16;5010482;28;20025;-35
2023/12/06 03:47:23;;;;;;;0.20;0.20;;;3.40;99.90;;;2.45;100.00;96633.59;5013160;28;20044;-36
2023/12/06 03:49:48;;;;;;;0.40;0.13;;;3.40;99.90;;;2.39;100.00;96622.44;5012204;28;20037;-34
2023/12/06 03:52:14;;;;;;;0.35;0.20;;;3.40;99.90;;;2.45;100.00;96635.34;5011414;28;20543;-37
2023/12/06 03:54:40;;;;;;;0.17;0.10;;;3.30;99.90;;;2.44;100.00;96636.22;5015075;28;20029;-35
2023/12/06 03:57:05;;;;;;;0.88;0.20;;;3.40;99.90;;;2.45;100.00;96638.78;5014366;28;20486;-35
2023/12/06 03:59:31;;;;;;;0.15;0.15;;;3.40;99.90;;;2.48;100.00;96640.50;5012870;28;21068;-36
2023/12/06 04:01:57;;;;;;;0.43;0.10;;;3.40;99.90;;;2.48;100.00;96635.28;5012226;28;20100;-35
2023/12/06 04:04:23;;;;;;;0.32;0.20;;;3.40;99.90;;;2.46;100.00;96642.28;4993953;28;20356;-35
2023/12/06 04:06:48;;;;;;;0.10;0.10;;;3.40;99.90;;;2.46;100.00;96637.06;5009160;28;20079;-35
2023/12/06 04:09:14;;;;;;;0.10;0.10;;;3.40;99.90;;;2.46;100.00;96637.91;5009185;28;20029;-36
2023/12/06 04:11:40;;;;;;;0.73;0.20;;;3.40;99.90;;;2.46;100.00;96637.91;5011792;28;20128;-35
2023/12/06 04:14:07;;;;;;;0.10;0.10;;;3.40;99.90;;;2.44;100.00;96631.00;5010385;28;20403;-35
2023/12/06 04:16:36;;;;;;;0.22;0.10;;;3.40;99.90;;;2.42;100.00;96636.25;5007217;28;20045;-36
2023/12/06 04:19:02;;;;;;;0.10;0.10;;;3.30;99.90;;;2.43;100.00;96639.72;5005466;28;20668;-35
2023/12/06 04:21:27;;;;;;;0.17;0.17;;;3.40;99.90;;;2.43;100.00;96639.72;5004573;28;20053;-36
2023/12/06 04:23:53;;;;;;;0.43;0.10;;;3.30;99.90;;;2.43;100.00;96648.38;5011962;28;20111;-35
2023/12/06 04:26:19;;;;;;;0.10;0.10;;;3.30;99.90;;;2.43;100.00;96648.38;5009812;28;20436;-35
2023/12/06 04:28:45;;;;;;;0.10;0.10;;;3.40;99.90;;;2.41;100.00;96652.75;5010236;28;20541;-35
2023/12/06 04:31:10;;;;;;;0.13;0.13;;;3.30;99.90;;;2.38;100.00;96654.53;5011336;28;20069;-35
2023/12/06 04:33:36;;;;;;;0.15;0.15;;;3.30;99.90;;;2.38;100.00;96660.59;4994409;28;20448;-35
2023/12/06 04:36:02;;;;;;;0.10;0.10;;;3.30;99.90;;;2.37;100.00;96666.69;5011922;28;20049;-35
2023/12/06 04:38:27;;;;;;;0.17;0.15;;;3.30;99.90;;;2.36;100.00;96657.16;5015323;28;20069;-35
2023/12/06 04:40:53;;;;;;;0.10;0.10;;;3.30;99.90;;;2.36;100.00;96672.78;5010719;28;20037;-35
2023/12/06 04:43:19;;;;;;;0.20;0.10;;;3.20;99.90;;;2.35;100.00;96671.06;5007406;28;20599;-35
2023/12/06 04:45:45;;;;;;;0.17;0.13;;;3.30;99.90;;;2.35;100.00;96680.59;5011648;28;20032;-35
2023/12/06 04:48:11;;;;;;;0.20;0.20;;;3.20;99.90;;;2.32;100.00;96681.53;5005186;28;20029;-35
2023/12/06 04:50:37;;;;;;;0.20;0.10;;;3.20;99.90;;;2.29;100.00;96679.81;5000285;28;20056;-35
2023/12/06 04:53:02;;;;;;;0.13;0.13;;;3.20;99.90;;;2.27;100.00;96691.13;5003451;28;20446;-35
2023/12/06 04:55:28;;;;;;;0.20;0.20;;;3.20;99.90;;;2.27;100.00;96678.97;5010527;28;20041;-35
2023/12/06 04:57:54;;;;;;;0.13;0.13;;;3.20;99.90;;;2.28;100.00;96685.91;5011729;28;20502;-35
2023/12/06 05:00:21;;;;;;;0.98;0.20;;;3.20;99.90;;;2.29;100.00;96685.00;5002266;28;20036;-35
2023/12/06 05:02:47;;;;;;;0.17;0.17;;;3.20;99.90;;;2.28;100.00;96687.66;5006057;28;20515;-35
2023/12/06 05:05:13;;;;;;;0.00;0.00;;;3.20;99.90;;;2.27;100.00;96688.53;5010859;28;20033;-35
2023/12/06 05:07:39;;;;;;;0.10;0.10;;;3.20;99.90;;;2.29;100.00;96689.38;5007743;28;20033;-35
2023/12/06 05:10:05;;;;;;;0.22;0.10;;;3.20;99.90;;;2.34;100.00;96684.97;5012962;28;20033;-35
2023/12/06 05:12:31;;;;;;;0.20;0.15;;;3.20;99.90;;;2.35;100.00;96691.91;5008982;28;20046;-35
2023/12/06 05:14:56;;;;;;;0.10;0.10;;;3.30;99.90;;;2.35;100.00;96686.69;5006730;28;20029;-35
2023/12/06 05:17:22;;;;;;;0.10;0.10;;;3.30;99.90;;;2.36;100.00;96688.38;5004003;28;21283;-35
2023/12/06 05:19:48;;;;;;;1.67;0.10;;;3.20;99.90;;;2.27;100.00;96670.31;5008761;28;20049;-35
2023/12/06 05:22:14;;;;;;;0.00;0.00;;;3.30;99.90;;;2.41;100.00;96690.94;5008926;28;20021;-35
2023/12/06 05:24:40;;;;;;;0.20;0.20;;;3.30;99.90;;;2.44;100.00;96699.56;5010870;28;20033;-36
2023/12/06 05:27:05;;;;;;;0.30;0.20;;;3.30;99.90;;;2.46;100.00;96704.72;5012472;28;20033;-35
2023/12/06 05:29:34;;;;;;;0.05;0.05;;;3.40;99.90;;;2.50;100.00;96697.75;5011672;28;20489;-35
2023/12/06 05:32:00;;;;;;;0.05;0.05;;;3.40;99.90;;;2.53;100.00;96700.28;5009519;28;20033;-35
2023/12/06 05:34:25;;;;;;;0.10;0.10;;;3.40;99.90;;;2.54;100.00;96699.41;5006563;28;20041;-36
2023/12/06 05:36:51;;;;;;;0.10;0.10;;;3.40;99.90;;;2.52;100.00;96691.59;5013469;28;20037;-36
2023/12/06 05:39:17;;;;;;;0.10;0.10;;;3.40;99.90;;;2.40;100.00;96674.44;5011732;28;20033;-36
2023/12/06 05:41:43;;;;;;;0.38;0.20;;;3.40;99.90;;;2.52;100.00;96699.41;5005053;28;20029;-36
2023/12/06 05:44:09;;;;;;;0.35;0.22;;;3.40;99.90;;;2.50;100.00;96698.59;5009415;28;20042;-36
2023/12/06 05:46:34;;;;;;;0.25;0.17;;;3.40;99.90;;;2.35;100.00;96675.41;5005694;28;20412;-36
2023/12/06 05:49:00;;;;;;;0.10;0.10;;;3.40;99.90;;;2.47;100.00;96701.22;5008930;28;20037;-36
2023/12/06 05:51:26;;;;;;;0.20;0.15;;;3.30;99.90;;;2.49;100.00;96699.47;5010695;28;20415;-36
2023/12/06 05:53:52;;;;;;;0.10;0.10;;;3.40;99.90;;;2.49;100.00;96694.25;5014404;28;20030;-36
2023/12/06 05:56:17;;;;;;;0.20;0.20;;;3.40;99.90;;;2.40;100.00;96692.66;5014282;28;20038;-36
2023/12/06 05:58:43;;;;;;;0.35;0.15;;;3.40;99.90;;;2.48;100.00;96697.75;5012940;28;20029;-36
2023/12/06 06:01:09;;;;;;;0.85;0.20;;;3.40;99.90;;;2.44;100.00;96702.16;5018864;28;20029;-36
2023/12/06 06:03:35;;;;;;;0.20;0.20;;;3.30;99.90;;;2.44;100.00;96699.56;4998888;28;20075;-36
2023/12/06 06:06:06;;;;;;;0.28;0.10;;;3.30;99.90;;;2.34;100.00;96681.50;5011575;28;20025;-36
2023/12/06 06:08:33;;;;;;;0.40;0.30;;;3.30;99.90;;;2.42;100.00;96693.50;5012277;28;20084;-36
2023/12/06 06:10:58;;;;;;;0.20;0.20;;;3.30;99.90;;;2.41;100.00;96698.75;5012194;28;20270;-36
2023/12/06 06:13:28;;;;;;;0.38;0.25;;;3.30;99.90;;;2.37;100.00;96705.72;5016397;28;20482;-36
2023/12/06 06:15:54;;;;;;;0.47;0.40;;;3.30;99.90;;;2.37;100.00;96699.66;5012892;28;20040;-36
2023/12/06 06:18:20;;;;;;;0.25;0.20;;;3.30;99.90;;;2.39;100.00;96703.13;5014314;28;20311;-36
2023/12/06 06:20:46;;;;;;;1.05;0.30;;;3.30;99.90;;;2.37;100.00;96710.94;5011924;28;21023;-36
2023/12/06 06:23:12;;;;;;;0.22;0.20;;;3.30;99.90;;;2.38;100.00;96706.59;5010591;28;20529;-36
2023/12/06 06:25:37;;;;;;;0.57;0.30;;;3.30;99.90;;;2.42;100.00;96709.13;5013935;28;20349;-36
2023/12/06 06:28:03;;;;;;;0.60;0.20;;;3.30;99.90;;;2.44;100.00;96715.16;4995607;28;20045;-36
2023/12/06 06:30:29;;;;;;;0.55;0.20;;;3.30;99.90;;;2.47;100.00;96711.63;5011998;28;20048;-36
2023/12/06 06:32:55;;;;;;;0.57;0.30;;;3.40;99.90;;;2.45;100.00;96711.66;5015286;28;20041;-36
2023/12/06 06:35:21;;;;;;;0.30;0.30;;;3.40;99.90;;;2.48;100.00;96713.38;5017269;28;20076;-36
2023/12/06 06:37:47;;;;;;;0.60;0.32;;;3.40;99.90;;;2.44;100.00;96715.16;5013347;28;20030;-37
2023/12/06 06:40:14;;;;;;;2.60;0.50;;;3.40;99.90;;;2.43;100.00;96730.81;5015732;28;20029;-36
2023/12/06 06:42:40;;;;;;;1.10;0.57;;;3.30;99.90;;;2.43;100.00;96734.25;5008472;28;20560;-36
2023/12/06 06:45:10;;;;;;;0.88;0.40;;;3.30;99.90;;;2.46;100.00;96728.16;5013705;28;20022;-36
2023/12/06 06:47:36;;;;;;;0.20;0.20;;;3.40;99.90;;;2.47;100.00;96728.09;5012150;28;20045;-35
2023/12/06 06:50:04;;;;;;;1.05;0.40;;;3.40;99.90;;;2.50;100.00;96748.03;5011025;28;20080;-36
2023/12/06 06:52:32;;;;;;;0.70;0.20;;;3.40;99.90;;;2.52;100.00;96743.66;5016998;28;20413;-36
2023/12/06 06:54:58;;;;;;;0.63;0.25;;;3.40;99.90;;;2.57;100.00;96749.66;5015450;28;20033;-36
2023/12/06 06:57:23;;;;;;;0.47;0.20;;;3.50;99.90;;;2.62;100.00;96744.38;5008700;28;20033;-36
2023/12/06 06:59:49;;;;;;;0.30;0.20;;;3.50;99.90;;;2.62;100.00;96746.97;5012863;28;20036;-36
2023/12/06 07:02:16;;;;;;;0.82;0.40;;;3.50;99.90;;;2.66;100.00;96752.13;4997410;28;20088;-36
2023/12/06 07:04:43;;;;;;;0.32;0.30;;;3.50;99.90;;;2.68;100.00;96759.91;5015400;28;20030;-36
2023/12/06 07:07:09;;;;;;;0.85;0.52;;;3.50;99.90;;;2.58;100.00;96745.31;5015135;28;20341;-36
2023/12/06 07:09:35;;;;;;;1.02;0.32;;;3.60;99.90;;;2.72;100.00;96752.91;5016579;28;20045;-36
2023/12/06 07:12:00;;;;;;;1.63;0.30;;;3.60;99.90;;;2.69;100.00;96753.81;5011473;28;20034;-36
2023/12/06 07:14:26;;;;;;;0.20;0.20;;;3.60;99.90;;;2.77;100.00;96761.50;5010116;28;20029;-36
2023/12/06 07:16:53;;;;;;;1.92;0.32;;;3.70;99.90;;;2.78;100.00;96758.88;5011655;28;20478;-36
2023/12/06 07:19:19;;;;;;;1.92;0.45;;;3.70;99.90;;;2.80;100.00;96770.13;4999850;28;20030;-36
2023/12/06 07:21:45;;;;;;;1.63;0.40;;;3.70;99.90;;;2.85;100.00;96772.63;5002463;28;20022;-36
2023/12/06 07:24:11;;;;;;;0.35;0.30;;;3.70;99.90;;;2.82;100.00;96768.34;5016660;28;20029;-36
2023/12/06 07:26:37;;;;;;;0.75;0.40;;;3.70;99.90;;;2.83;100.00;96772.66;5014802;28;20094;-36
2023/12/06 07:29:03;;;;;;;0.60;0.45;;;3.70;99.90;;;2.84;100.00;96779.59;5014884;28;20633;-36
2023/12/06 07:31:29;;;;;;;0.50;0.30;;;3.70;99.90;;;2.85;100.00;96783.94;5012340;28;20037;-36
2023/12/06 07:33:55;;;;;;;0.30;0.30;;;3.70;99.90;;;2.91;100.00;96787.31;5011951;28;20039;-36
2023/12/06 07:36:21;;;;;;;0.40;0.30;;;3.80;99.90;;;2.93;100.00;96789.00;5013361;28;20037;-36
2023/12/06 07:38:47;;;;;;;0.52;0.30;;;3.80;99.90;;;2.93;100.00;96789.00;5006629;28;20047;-36
2023/12/06 07:41:13;;;;;;;0.52;0.40;;;3.80;99.90;;;2.95;100.00;96789.84;5011147;28;20436;-36
2023/12/06 07:43:39;;;;;;;0.40;0.30;;;3.80;99.90;;;2.98;100.00;96797.63;4996145;28;20033;-36
2023/12/06 07:46:05;;;;;;;0.30;0.30;;;3.80;99.90;;;2.97;100.00;96795.03;5012118;28;20753;-35
2023/12/06 07:48:31;;;;;;;0.55;0.40;;;3.90;99.90;;;3.01;100.00;96804.50;5013678;28;20040;-36
2023/12/06 07:50:57;;;;;;;0.50;0.28;;;3.90;99.90;;;3.01;100.00;96807.13;5014421;28;20043;-36
2023/12/06 07:53:23;;;;;;;0.90;0.52;;;3.90;99.90;;;3.02;100.00;96816.66;5006954;28;20432;-36
2023/12/06 07:55:49;;;;;;;1.27;0.60;;;3.90;99.90;;;3.05;100.00;96817.47;5013238;28;20490;-36
2023/12/06 07:58:16;;;;;;;1.15;0.60;;;3.90;99.90;;;3.03;100.00;96824.47;5015276;28;20038;-36
2023/12/06 08:00:42;;;;;;;7.55;0.70;;;3.90;99.90;;;3.05;100.00;96830.50;5009445;28;20166;-36
2023/12/06 08:03:08;;;;;;;0.90;0.50;;;3.90;99.90;;;3.06;100.00;96827.00;5007712;28;20037;-36
2023/12/06 08:05:35;;;;;;;1.60;0.70;;;3.90;99.90;;;3.07;100.00;96838.28;5004561;28;20276;-36
2023/12/06 08:08:01;;;;;;;2.03;0.80;;;3.90;99.90;;;3.13;100.00;96848.59;5008917;28;20025;-36
2023/12/06 08:10:29;;;;;;;0.90;0.73;;;4.00;99.90;;;3.11;100.00;96845.16;5008418;28;20639;-36
2023/12/06 08:12:55;;;;;;;0.82;0.63;;;4.00;99.90;;;3.12;100.00;96846.00;4998007;28;20041;-36
2023/12/06 08:15:21;;;;;;;1.05;0.65;;;4.00;99.90;;;3.11;100.00;96852.97;5002700;28;20042;-36
2023/12/06 08:17:47;;;;;;;0.93;0.70;;;4.00;99.90;;;3.01;100.00;96834.00;5005013;28;20030;-38
2023/12/06 08:20:13;;;;;;;1.98;1.30;;;4.00;99.90;;;3.11;100.00;96857.34;5004457;28;20033;-35
2023/12/06 08:22:39;;;;;;;1.40;0.80;;;4.00;99.90;;;3.01;100.00;96844.44;5008926;28;20115;-36
2023/12/06 08:25:06;;;;;;;1.58;1.30;;;4.00;99.90;;;3.06;100.00;96849.59;5004076;28;20049;-36
2023/12/06 08:27:34;;;;;;;1.83;1.58;;;4.00;99.90;;;3.10;100.00;96868.63;5005986;28;20120;-36
2023/12/06 08:30:00;;;;;;;3.35;2.05;;;4.00;99.90;;;3.08;100.00;96867.81;5010226;28;20057;-36
2023/12/06 08:32:27;;;;;;;3.67;2.35;;;4.00;99.90;;;3.04;100.00;96865.22;5010511;28;20038;-36
2023/12/06 08:34:54;;;;;;;4.25;3.33;;;3.90;99.90;;;2.98;100.00;96859.25;5003182;28;20026;-36
2023/12/06 08:37:20;;;;;;;4.55;2.97;;;3.90;99.90;;;3.02;100.00;96877.44;5006627;28;20037;-36
2023/12/06 08:39:45;;;;;;;5.18;3.55;;;3.90;99.90;;;3.00;100.00;96876.59;5007674;28;20045;-36
2023/12/06 08:42:14;;;;;;;4.80;3.30;;;3.90;99.90;;;3.01;100.00;96893.94;5005577;28;20033;-36
2023/12/06 08:44:41;;;;;;;5.75;3.67;;;3.90;99.90;;;2.99;100.00;96894.84;5005835;28;20509;-36
2023/12/06 08:47:08;;;;;;;6.85;3.60;;;3.90;99.90;;;3.00;100.00;96893.97;5007398;28;20041;-36
2023/12/06 08:49:37;;;;;;;5.55;4.20;;;3.90;99.90;;;2.93;100.00;96894.97;5003841;28;20064;-36
2023/12/06 08:52:04;;;;;;;6.93;4.40;;;3.90;99.90;;;2.93;100.00;96903.63;5002059;28;20037;-36
2023/12/06 08:54:29;;;;;;;7.78;5.03;;;3.80;99.90;;;2.89;100.00;96904.56;5005954;28;20095;-36
2023/12/06 08:56:55;;;;;;;6.95;4.28;;;3.80;99.90;;;2.86;100.00;96900.22;5005039;28;20103;-35
2023/12/06 08:59:21;;;;;;;6.97;4.82;;;3.80;99.90;;;2.85;100.00;96906.34;5000256;28;20231;-35
2023/12/06 09:01:46;;;;;;;9.80;5.30;;;3.80;99.90;;;2.77;100.00;96905.56;5003971;28;20025;-36
2023/12/06 09:04:12;;;;;;;7.43;4.90;;;3.80;99.90;;;2.75;100.00;96916.91;5002101;28;20092;-35
2023/12/06 09:06:38;;;;;;;7.60;5.22;;;3.70;99.90;;;2.76;100.00;96910.81;5002747;28;20473;-35
2023/12/06 09:09:05;;;;;;;9.60;5.22;;;3.70;99.90;;;2.76;100.00;96916.00;5002060;28;20029;-36
2023/12/06 09:11:31;;;;;;;8.40;5.45;;;3.70;99.90;;;2.65;100.00;96901.38;5003209;28;20033;-37
2023/12/06 09:13:57;;;;;;;7.13;4.85;;;3.70;99.90;;;2.76;100.00;96918.63;5004084;28;20114;-34
2023/12/06 09:16:22;;;;;;;9.68;5.53;;;3.70;99.90;;;2.74;100.00;96916.03;5007145;28;20061;-36
2023/12/06 09:18:48;;;;;;;9.20;5.93;;;3.60;99.90;;;2.73;100.00;96924.75;5000644;28;20033;-36
2023/12/06 09:21:14;;;;;;;6.95;5.15;;;3.60;99.90;;;2.71;100.00;96928.22;5000143;28;20033;-36
2023/12/06 09:23:40;;;;;;;9.50;6.38;;;3.70;99.90;;;2.67;100.00;96935.22;5014862;28;20470;-36
2023/12/06 09:26:06;;;;;;;8.43;5.60;;;3.60;99.90;;;2.73;100.00;96937.75;5007614;28;20045;-37
2023/12/06 09:28:31;;;;;;;9.07;6.03;;;3.60;99.90;;;2.64;100.00;96946.56;5006133;28;20064;-35
2023/12/06 09:30:57;;;;;;;8.38;6.07;;;3.60;99.90;;;2.56;100.00;96939.72;5002853;28;20032;-35
2023/12/06 09:33:23;;;;;;;8.38;5.70;;;3.60;99.90;;;2.65;100.00;96947.41;5003099;28;20064;-35
2023/12/06 09:35:49;;;;;;;8.75;5.40;;;3.60;99.90;;;2.63;100.00;96941.34;5002653;28;20037;-35
2023/12/06 09:38:14;;;;;;;7.80;5.32;;;3.60;99.90;;;2.67;100.00;96958.66;5004322;28;23323;-36
2023/12/06 09:40:40;;;;;;;8.65;5.53;;;3.60;99.90;;;2.67;100.00;96953.44;5007908;28;20379;-35
2023/12/06 09:43:07;;;;;;;8.25;5.75;;;3.60;99.90;;;2.68;100.00;96949.97;5006349;28;20156;-36
2023/12/06 09:45:33;;;;;;;7.93;5.85;;;3.60;99.90;;;2.70;100.00;96953.41;5003705;28;20517;-36
2023/12/06 09:48:00;;;;;;;10.32;6.00;;;3.60;99.90;;;2.77;100.00;96941.19;4986873;28;20103;-36
2023/12/06 09:50:26;;;;;;;9.55;5.65;;;3.60;99.90;;;2.73;100.00;96958.59;4987312;28;20863;-36
2023/12/06 09:52:53;;;;;;;8.82;5.55;;;3.60;99.90;;;2.72;100.00;96956.84;5003081;28;20391;-36
2023/12/06 09:55:24;;;;;;;8.32;5.25;;;3.70;99.90;;;2.72;100.00;96954.25;5003474;28;20411;-36
2023/12/06 09:57:54;;;;;;;7.65;5.18;;;3.60;99.90;;;2.68;100.00;96965.59;5002599;28;20057;-36
2023/12/06 10:00:22;;;;;;;6.95;4.90;;;3.60;99.90;;;2.73;100.00;96968.13;5008746;28;20026;-36
2023/12/06 10:02:50;;;;;;;7.93;5.55;;;3.70;99.90;;;2.78;100.00;96966.31;5010864;28;20557;-36
2023/12/06 10:05:16;;;;;;;8.18;5.60;;;3.70;99.90;;;2.80;100.00;96970.66;5012907;28;20087;-36
2023/12/06 10:07:42;;;;;;;8.45;5.40;;;3.70;99.90;;;2.75;100.00;96974.19;5014351;28;20037;-36
2023/12/06 10:10:16;;;;;;;8.77;5.53;;;3.70;99.90;;;2.80;100.00;96978.47;5013345;28;20034;-36
2023/12/06 10:12:49;;;;;;;7.38;5.15;;;3.70;99.90;;;2.83;100.00;96978.41;5013661;28;20061;-36
2023/12/06 10:15:17;;;;;;;7.32;4.78;;;3.70;99.90;;;2.83;100.00;96982.75;5012369;28;20485;-36
2023/12/06 10:17:43;;;;;;;8.18;5.20;;;3.80;99.90;;;2.79;100.00;96968.91;5014963;28;20053;-36
2023/12/06 10:20:09;;;;;;;7.95;5.10;;;3.70;99.90;;;2.86;100.00;96980.13;5009702;28;20191;-36